createdAt,value
2017-12-04T00:00:28.492Z,5.63
2017-12-04T00:01:37.314Z,5.68
2017-12-04T00:02:46.137Z,5.57
2017-12-04T00:03:54.965Z,5.56
2017-12-04T00:05:03.837Z,5.65
2017-12-04T00:06:12.937Z,5.64
2017-12-04T00:07:21.764Z,5.75
2017-12-04T00:08:30.590Z,5.68
2017-12-04T00:09:39.459Z,5.81
2017-12-04T00:10:48.541Z,5.74
2017-12-04T00:11:57.366Z,5.68
2017-12-04T00:13:06.193Z,5.71
2017-12-04T00:14:15.028Z,5.63
2017-12-04T00:15:23.854Z,5.83
2017-12-04T00:16:32.679Z,5.68
2017-12-04T00:17:41.505Z,5.68
2017-12-04T00:18:50.331Z,5.68
2017-12-04T00:19:59.160Z,5.74
2017-12-04T00:21:07.987Z,5.68
2017-12-04T00:22:16.816Z,5.68
2017-12-04T00:23:25.646Z,5.61
2017-12-04T00:24:34.472Z,5.67
2017-12-04T00:25:43.296Z,5.65
2017-12-04T00:26:52.119Z,5.63
2017-12-04T00:28:01.094Z,5.63
2017-12-04T00:29:09.921Z,5.61
2017-12-04T00:30:18.750Z,5.61
2017-12-04T00:31:27.577Z,5.82
2017-12-04T00:32:36.401Z,5.63
2017-12-04T00:33:45.279Z,5.61
2017-12-04T00:34:54.113Z,5.64
2017-12-04T00:36:03.209Z,5.79
2017-12-04T00:37:12.035Z,5.82
2017-12-04T00:38:20.858Z,5.67
2017-12-04T00:39:29.685Z,5.74
2017-12-04T00:40:38.509Z,5.6
2017-12-04T00:41:47.335Z,5.63
2017-12-04T00:42:56.167Z,5.91
2017-12-04T00:44:04.990Z,5.67
2017-12-04T00:45:13.967Z,5.71
2017-12-04T00:46:22.796Z,5.65
2017-12-04T00:47:31.620Z,5.68
2017-12-04T00:48:40.449Z,5.81
2017-12-04T00:49:49.268Z,5.79
2017-12-04T00:50:58.396Z,6.12
2017-12-04T00:52:07.221Z,6.19
2017-12-04T00:53:16.048Z,5.83
2017-12-04T00:54:24.873Z,5.75
2017-12-04T00:55:33.696Z,5.86
2017-12-04T00:56:42.828Z,5.64
2017-12-04T00:57:51.926Z,5.9
2017-12-04T00:59:00.750Z,5.64
2017-12-04T01:00:09.574Z,5.65
2017-12-04T01:01:18.399Z,5.6
2017-12-04T01:02:27.652Z,5.63
2017-12-04T01:03:36.758Z,5.63
2017-12-04T01:04:45.590Z,5.61
2017-12-04T01:05:54.414Z,5.65
2017-12-04T01:07:03.241Z,5.64
2017-12-04T01:08:12.218Z,5.76
2017-12-04T01:09:21.319Z,5.81
2017-12-04T01:10:30.144Z,5.72
2017-12-04T01:11:39.149Z,5.63
2017-12-04T01:12:47.976Z,5.71
2017-12-04T01:13:56.800Z,5.65
2017-12-04T01:15:05.628Z,5.99
2017-12-04T01:16:14.453Z,5.82
2017-12-04T01:17:23.562Z,5.67
2017-12-04T01:18:32.383Z,5.78
2017-12-04T01:19:41.460Z,5.76
2017-12-04T01:20:50.286Z,5.79
2017-12-04T01:21:59.112Z,5.78
2017-12-04T01:23:07.939Z,5.93
2017-12-04T01:24:16.763Z,5.79
2017-12-04T01:25:25.691Z,5.83
2017-12-04T01:26:34.790Z,6.12
2017-12-04T01:27:43.616Z,5.94
2017-12-04T01:28:52.441Z,5.93
2017-12-04T01:30:01.266Z,5.89
2017-12-04T01:31:10.151Z,5.96
2017-12-04T01:32:19.250Z,5.94
2017-12-04T01:33:28.075Z,5.86
2017-12-04T01:34:36.902Z,5.94
2017-12-04T01:35:45.729Z,5.75
2017-12-04T01:36:54.556Z,5.83
2017-12-04T01:38:03.383Z,6.03
2017-12-04T01:39:12.210Z,5.86
2017-12-04T01:40:21.039Z,5.75
2017-12-04T01:41:29.865Z,5.81
2017-12-04T01:42:38.690Z,6.06
2017-12-04T01:43:47.519Z,5.96
2017-12-04T01:44:56.344Z,6.04
2017-12-04T01:46:05.171Z,5.85
2017-12-04T01:47:13.999Z,5.76
2017-12-04T01:48:23.124Z,5.75
2017-12-04T01:49:31.947Z,5.72
2017-12-04T01:50:40.774Z,5.81
2017-12-04T01:51:49.601Z,5.74
2017-12-04T01:52:58.428Z,5.83
2017-12-04T01:54:07.506Z,5.71
2017-12-04T01:55:16.334Z,5.61
2017-12-04T01:56:25.157Z,5.64
2017-12-04T01:57:34.255Z,5.64
2017-12-04T01:58:43.358Z,5.68
2017-12-04T01:59:52.484Z,5.82
2017-12-04T02:01:01.311Z,5.67
2017-12-04T02:02:10.134Z,5.63
2017-12-04T02:03:18.962Z,5.63
2017-12-04T02:04:27.786Z,5.68
2017-12-04T02:05:36.938Z,5.76
2017-12-04T02:06:45.767Z,5.65
2017-12-04T02:07:54.593Z,5.64
2017-12-04T02:09:03.691Z,5.64
2017-12-04T02:10:12.517Z,5.64
2017-12-04T02:11:21.743Z,5.63
2017-12-04T02:12:30.567Z,5.68
2017-12-04T02:13:39.396Z,5.58
2017-12-04T02:14:48.221Z,5.75
2017-12-04T02:15:57.048Z,5.75
2017-12-04T02:17:06.174Z,5.67
2017-12-04T02:18:15.275Z,5.68
2017-12-04T02:19:24.102Z,5.67
2017-12-04T02:20:33.208Z,5.82
2017-12-04T02:21:42.133Z,5.78
2017-12-04T02:22:51.058Z,5.68
2017-12-04T02:23:59.884Z,5.64
2017-12-04T02:25:08.708Z,5.65
2017-12-04T02:26:17.535Z,5.64
2017-12-04T02:27:26.363Z,5.82
2017-12-04T02:28:35.489Z,5.65
2017-12-04T02:29:44.312Z,5.72
2017-12-04T02:30:53.142Z,5.67
2017-12-04T02:32:01.979Z,5.67
2017-12-04T02:33:10.790Z,5.72
2017-12-04T02:34:20.044Z,5.75
2017-12-04T02:35:28.869Z,5.67
2017-12-04T02:36:37.698Z,5.57
2017-12-04T02:37:46.525Z,5.61
2017-12-04T02:38:55.351Z,5.74
2017-12-04T02:40:04.182Z,5.57
2017-12-04T02:41:13.284Z,5.61
2017-12-04T02:42:22.110Z,5.63
2017-12-04T02:43:30.938Z,5.67
2017-12-04T02:44:39.766Z,5.75
2017-12-04T02:45:48.640Z,5.79
2017-12-04T02:46:57.466Z,5.72
2017-12-04T02:48:06.292Z,5.76
2017-12-04T02:49:15.115Z,5.78
2017-12-04T02:50:23.940Z,6.04
2017-12-04T02:51:32.765Z,5.76
2017-12-04T02:52:41.867Z,5.68
2017-12-04T02:53:50.696Z,5.72
2017-12-04T02:54:59.523Z,5.96
2017-12-04T02:56:08.351Z,6.09
2017-12-04T02:57:17.374Z,6.14
2017-12-04T02:58:26.200Z,5.96
2017-12-04T02:59:35.028Z,5.82
2017-12-04T03:00:43.850Z,5.9
2017-12-04T03:01:52.958Z,5.86
2017-12-04T03:03:01.934Z,5.74
2017-12-04T03:04:10.759Z,5.81
2017-12-04T03:05:19.585Z,5.89
2017-12-04T03:06:28.409Z,5.94
2017-12-04T03:07:37.238Z,5.94
2017-12-04T03:08:46.163Z,5.86
2017-12-04T03:09:54.988Z,6.12
2017-12-04T03:11:03.813Z,6.51
2017-12-04T03:12:12.638Z,6.18
2017-12-04T03:13:21.464Z,6.09
2017-12-04T03:14:30.348Z,6.28
2017-12-04T03:15:39.175Z,6.12
2017-12-04T03:16:48.002Z,5.97
2017-12-04T03:17:56.826Z,5.96
2017-12-04T03:19:05.657Z,6.01
2017-12-04T03:20:14.778Z,6.36
2017-12-04T03:21:23.605Z,6.12
2017-12-04T03:22:32.432Z,6.06
2017-12-04T03:23:41.259Z,6.12
2017-12-04T03:24:50.085Z,6.15
2017-12-04T03:25:59.061Z,6.37
2017-12-04T03:27:07.924Z,6.27
2017-12-04T03:28:16.710Z,6.28
2017-12-04T03:29:25.537Z,6.08
2017-12-04T03:30:34.371Z,6.08
2017-12-04T03:31:43.622Z,6.15
2017-12-04T03:32:52.721Z,6.12
2017-12-04T03:34:01.548Z,6.08
2017-12-04T03:35:10.374Z,6.08
2017-12-04T03:36:19.198Z,6.03
2017-12-04T03:37:28.078Z,6.04
2017-12-04T03:38:36.910Z,5.93
2017-12-04T03:39:45.728Z,6.15
2017-12-04T03:40:54.553Z,5.97
2017-12-04T03:42:03.652Z,6.01
2017-12-04T03:43:12.780Z,5.9
2017-12-04T03:44:21.608Z,6.12
2017-12-04T03:45:30.435Z,6.18
2017-12-04T03:46:39.261Z,6.09
2017-12-04T03:47:48.087Z,6.08
2017-12-04T03:48:57.114Z,6.12
2017-12-04T03:50:05.940Z,5.96
2017-12-04T03:51:14.763Z,6.08
2017-12-04T03:52:23.593Z,6.03
2017-12-04T03:53:32.418Z,6.28
2017-12-04T03:54:41.668Z,6.06
2017-12-04T03:55:50.497Z,6
2017-12-04T03:56:59.321Z,6.09
2017-12-04T03:58:08.149Z,6.09
2017-12-04T03:59:17.254Z,6.12
2017-12-04T04:00:26.077Z,6.06
2017-12-04T04:01:34.905Z,6.14
2017-12-04T04:02:43.731Z,6.17
2017-12-04T04:03:52.558Z,5.9
2017-12-04T04:05:01.383Z,6.14
2017-12-04T04:06:10.509Z,6.21
2017-12-04T04:07:19.339Z,6.06
2017-12-04T04:08:28.169Z,6.12
2017-12-04T04:09:36.991Z,5.85
2017-12-04T04:10:45.815Z,5.82
2017-12-04T04:11:54.638Z,5.71
2017-12-04T04:13:03.464Z,5.75
2017-12-04T04:14:12.291Z,5.83
2017-12-04T04:15:21.117Z,5.9
2017-12-04T04:16:29.946Z,5.93
2017-12-04T04:17:39.047Z,5.89
2017-12-04T04:18:47.873Z,5.81
2017-12-04T04:19:56.972Z,5.81
2017-12-04T04:21:05.800Z,5.94
2017-12-04T04:22:14.627Z,6.04
2017-12-04T04:23:23.976Z,6.14
2017-12-04T04:24:33.360Z,5.93
2017-12-04T04:25:42.186Z,5.78
2017-12-04T04:26:51.012Z,6.08
2017-12-04T04:27:59.837Z,6.04
2017-12-04T04:29:08.663Z,5.81
2017-12-04T04:30:17.490Z,5.86
2017-12-04T04:31:26.589Z,5.67
2017-12-04T04:32:35.414Z,5.9
2017-12-04T04:33:44.520Z,5.91
2017-12-04T04:34:53.398Z,5.79
2017-12-04T04:36:02.223Z,5.89
2017-12-04T04:37:11.050Z,5.67
2017-12-04T04:38:19.875Z,5.68
2017-12-04T04:39:28.700Z,5.85
2017-12-04T04:40:37.858Z,5.78
2017-12-04T04:41:46.653Z,5.79
2017-12-04T04:42:55.477Z,5.65
2017-12-04T04:44:04.300Z,5.81
2017-12-04T04:45:13.131Z,5.82
2017-12-04T04:46:21.962Z,5.76
2017-12-04T04:47:30.786Z,5.97
2017-12-04T04:48:39.612Z,5.89
2017-12-04T04:49:48.440Z,5.78
2017-12-04T04:50:57.263Z,5.9
2017-12-04T04:52:06.632Z,5.9
2017-12-04T04:53:15.458Z,5.96
2017-12-04T04:54:24.286Z,5.9
2017-12-04T04:55:33.110Z,6.22
2017-12-04T04:56:41.936Z,5.96
2017-12-04T04:57:50.863Z,6.11
2017-12-04T04:58:59.690Z,6.14
2017-12-04T05:00:08.517Z,5.99
2017-12-04T05:01:17.345Z,5.89
2017-12-04T05:02:26.447Z,5.93
2017-12-04T05:03:35.273Z,5.96
2017-12-04T05:04:44.096Z,5.96
2017-12-04T05:05:52.926Z,6.06
2017-12-04T05:07:01.752Z,6.11
2017-12-04T05:08:10.578Z,6
2017-12-04T05:09:19.504Z,5.96
2017-12-04T05:10:28.330Z,6.15
2017-12-04T05:11:37.157Z,6.15
2017-12-04T05:12:45.983Z,6.08
2017-12-04T05:13:55.085Z,6.19
2017-12-04T05:15:04.061Z,6.15
2017-12-04T05:16:13.163Z,6.27
2017-12-04T05:17:21.990Z,6.09
2017-12-04T05:18:30.816Z,6.09
2017-12-04T05:19:39.645Z,6.28
2017-12-04T05:20:48.795Z,6.36
2017-12-04T05:21:57.621Z,6.25
2017-12-04T05:23:06.448Z,6.19
2017-12-04T05:24:15.556Z,6.28
2017-12-04T05:25:24.386Z,6.28
2017-12-04T05:26:33.682Z,6.03
2017-12-04T05:27:42.507Z,6.17
2017-12-04T05:28:51.330Z,6.06
2017-12-04T05:30:00.157Z,6.06
2017-12-04T05:31:08.985Z,6.25
2017-12-04T05:32:18.516Z,6.33
2017-12-04T05:33:27.341Z,6.33
2017-12-04T05:34:36.186Z,6.11
2017-12-04T05:35:44.993Z,6.06
2017-12-04T05:36:54.096Z,5.97
2017-12-04T05:38:02.921Z,6.01
2017-12-04T05:39:11.746Z,6.3
2017-12-04T05:40:20.581Z,6.11
2017-12-04T05:41:29.400Z,6.03
2017-12-04T05:42:38.229Z,5.97
2017-12-04T05:43:47.357Z,5.93
2017-12-04T05:44:56.185Z,5.83
2017-12-04T05:46:05.011Z,5.85
2017-12-04T05:47:13.836Z,5.85
2017-12-04T05:48:22.661Z,5.83
2017-12-04T05:49:31.590Z,5.83
2017-12-04T05:50:40.969Z,5.96
2017-12-04T05:51:50.073Z,6.25
2017-12-04T05:52:59.181Z,6.14
2017-12-04T05:54:08.008Z,6.09
2017-12-04T05:55:16.933Z,6.03
2017-12-04T05:56:25.759Z,6.33
2017-12-04T05:57:34.586Z,6.12
2017-12-04T05:58:43.684Z,5.93
2017-12-04T05:59:52.513Z,6.25
2017-12-04T06:01:01.639Z,6.04
2017-12-04T06:02:10.475Z,5.83
2017-12-04T06:03:19.311Z,5.9
2017-12-04T06:04:28.414Z,5.74
2017-12-04T06:05:37.243Z,5.74
2017-12-04T06:06:46.068Z,5.93
2017-12-04T06:07:54.915Z,5.71
2017-12-04T06:09:04.018Z,5.85
2017-12-04T06:10:12.847Z,5.68
2017-12-04T06:11:21.676Z,5.85
2017-12-04T06:12:30.752Z,6.03
2017-12-04T06:13:39.573Z,5.82
2017-12-04T06:14:48.401Z,5.82
2017-12-04T06:15:57.227Z,5.91
2017-12-04T06:17:06.054Z,5.89
2017-12-04T06:18:14.931Z,5.85
2017-12-04T06:19:24.032Z,5.74
2017-12-04T06:20:32.860Z,5.93
2017-12-04T06:21:41.688Z,5.79
2017-12-04T06:22:50.684Z,5.81
2017-12-04T06:23:59.754Z,6.04
2017-12-04T06:25:08.607Z,5.91
2017-12-04T06:26:17.433Z,5.93
2017-12-04T06:27:26.631Z,6.21
2017-12-04T06:28:35.461Z,6.12
2017-12-04T06:29:44.288Z,5.99
2017-12-04T06:30:53.115Z,5.93
2017-12-04T06:32:01.943Z,5.82
2017-12-04T06:33:10.770Z,5.79
2017-12-04T06:34:19.598Z,5.83
2017-12-04T06:35:28.427Z,5.82
2017-12-04T06:36:37.258Z,5.82
2017-12-04T06:37:46.086Z,6.03
2017-12-04T06:38:54.912Z,5.85
2017-12-04T06:40:03.740Z,5.82
2017-12-04T06:41:12.569Z,6.18
2017-12-04T06:42:21.401Z,6.15
2017-12-04T06:43:30.229Z,5.93
2017-12-04T06:44:39.057Z,5.97
2017-12-04T06:45:47.886Z,5.81
2017-12-04T06:46:56.712Z,5.79
2017-12-04T06:48:05.544Z,5.81
2017-12-04T06:49:14.369Z,5.68
2017-12-04T06:50:23.196Z,5.82
2017-12-04T06:51:32.024Z,6.03
2017-12-04T06:52:40.849Z,5.86
2017-12-04T06:53:49.675Z,5.79
2017-12-04T06:54:58.502Z,5.82
2017-12-04T06:56:07.327Z,5.68
2017-12-04T06:57:16.155Z,5.68
2017-12-04T06:58:25.257Z,5.81
2017-12-04T06:59:34.234Z,5.75
2017-12-04T07:00:43.062Z,5.93
2017-12-04T07:01:51.889Z,6
2017-12-04T07:03:00.721Z,5.86
2017-12-04T07:04:09.557Z,5.67
2017-12-04T07:05:18.541Z,5.76
2017-12-04T07:06:27.381Z,5.71
2017-12-04T07:07:36.220Z,5.85
2017-12-04T07:08:45.059Z,5.79
2017-12-04T07:09:53.896Z,5.71
2017-12-04T07:11:02.734Z,5.76
2017-12-04T07:12:11.571Z,5.76
2017-12-04T07:13:20.407Z,5.74
2017-12-04T07:14:29.511Z,5.81
2017-12-04T07:15:38.337Z,5.82
2017-12-04T07:16:47.164Z,5.79
2017-12-04T07:17:55.994Z,5.75
2017-12-04T07:19:05.092Z,5.79
2017-12-04T07:20:13.921Z,5.72
2017-12-04T07:21:23.323Z,5.68
2017-12-04T07:22:32.426Z,5.72
2017-12-04T07:23:41.539Z,5.65
2017-12-04T07:24:50.637Z,5.65
2017-12-04T07:25:59.672Z,5.81
2017-12-04T07:27:08.500Z,5.67
2017-12-04T07:28:17.327Z,5.75
2017-12-04T07:29:26.156Z,5.76
2017-12-04T07:30:34.983Z,5.91
2017-12-04T07:31:43.812Z,5.71
2017-12-04T07:32:52.638Z,5.67
2017-12-04T07:34:01.467Z,5.67
2017-12-04T07:35:10.356Z,5.72
2017-12-04T07:36:19.192Z,5.67
2017-12-04T07:37:28.015Z,5.72
2017-12-04T07:38:37.118Z,5.72
2017-12-04T07:39:45.944Z,5.67
2017-12-04T07:40:55.317Z,5.81
2017-12-04T07:42:04.420Z,5.71
2017-12-04T07:43:13.249Z,5.67
2017-12-04T07:44:22.353Z,5.68
2017-12-04T07:45:31.452Z,5.74
2017-12-04T07:46:40.280Z,5.74
2017-12-04T07:47:49.106Z,5.75
2017-12-04T07:48:57.931Z,5.85
2017-12-04T07:50:07.039Z,5.97
2017-12-04T07:51:15.921Z,5.74
2017-12-04T07:52:24.711Z,5.94
2017-12-04T07:53:33.840Z,5.85
2017-12-04T07:54:42.672Z,5.76
2017-12-04T07:55:51.501Z,5.91
2017-12-04T07:57:00.331Z,5.94
2017-12-04T07:58:09.730Z,5.93
2017-12-04T07:59:18.607Z,5.99
2017-12-04T08:00:27.716Z,5.91
2017-12-04T08:01:36.540Z,5.83
2017-12-04T08:02:45.367Z,5.85
2017-12-04T08:03:54.469Z,5.89
2017-12-04T08:05:03.502Z,5.85
2017-12-04T08:06:12.604Z,5.78
2017-12-04T08:07:21.707Z,5.78
2017-12-04T08:08:30.607Z,5.81
2017-12-04T08:09:39.431Z,5.91
2017-12-04T08:10:48.789Z,5.9
2017-12-04T08:11:57.617Z,6.01
2017-12-04T08:13:06.444Z,5.91
2017-12-04T08:14:15.272Z,6
2017-12-04T08:15:24.100Z,5.81
2017-12-04T08:16:33.077Z,5.86
2017-12-04T08:17:41.904Z,5.93
2017-12-04T08:18:50.755Z,5.86
2017-12-04T08:19:59.580Z,5.9
2017-12-04T08:21:08.414Z,6
2017-12-04T08:22:17.386Z,6.15
2017-12-04T08:23:26.213Z,6.08
2017-12-04T08:24:35.040Z,6.12
2017-12-04T08:25:43.870Z,6.03
2017-12-04T08:26:52.697Z,5.96
2017-12-04T08:28:01.574Z,5.85
2017-12-04T08:29:10.399Z,5.82
2017-12-04T08:30:19.228Z,6.04
2017-12-04T08:31:28.055Z,6.14
2017-12-04T08:32:36.881Z,6.12
2017-12-04T08:33:45.758Z,6.06
2017-12-04T08:34:54.584Z,5.96
2017-12-04T08:36:03.411Z,6.03
2017-12-04T08:37:12.237Z,5.9
2017-12-04T08:38:21.066Z,6.01
2017-12-04T08:39:30.095Z,6.22
2017-12-04T08:40:38.919Z,6.18
2017-12-04T08:41:47.748Z,6.11
2017-12-04T08:42:56.575Z,6.18
2017-12-04T08:44:05.403Z,6.22
2017-12-04T08:45:14.328Z,6.28
2017-12-04T08:46:23.156Z,5.93
2017-12-04T08:47:32.256Z,5.91
2017-12-04T08:48:41.083Z,5.85
2017-12-04T08:49:49.912Z,5.82
2017-12-04T08:50:58.792Z,5.81
2017-12-04T08:52:07.618Z,5.93
2017-12-04T08:53:16.446Z,5.82
2017-12-04T08:54:25.292Z,5.85
2017-12-04T08:55:34.122Z,5.89
2017-12-04T08:56:43.200Z,5.93
2017-12-04T08:57:52.029Z,5.85
2017-12-04T08:59:00.858Z,6.03
2017-12-04T09:00:09.684Z,6.3
2017-12-04T09:01:18.515Z,6.14
2017-12-04T09:02:27.342Z,6
2017-12-04T09:03:36.168Z,5.94
2017-12-04T09:04:45.271Z,5.9
2017-12-04T09:05:54.100Z,5.89
2017-12-04T09:07:03.477Z,5.94
2017-12-04T09:08:12.305Z,6.09
2017-12-04T09:09:21.409Z,5.93
2017-12-04T09:10:30.237Z,6.03
2017-12-04T09:11:39.066Z,5.93
2017-12-04T09:12:47.894Z,6.08
2017-12-04T09:13:56.830Z,6.04
2017-12-04T09:15:06.202Z,6.14
2017-12-04T09:16:15.028Z,6.31
2017-12-04T09:17:23.865Z,6.08
2017-12-04T09:18:32.685Z,6
2017-12-04T09:19:41.667Z,5.99
2017-12-04T09:20:50.530Z,6
2017-12-04T09:21:59.371Z,6.04
2017-12-04T09:23:08.199Z,6.09
2017-12-04T09:24:17.026Z,6.11
2017-12-04T09:25:26.005Z,6.08
2017-12-04T09:26:34.830Z,6.11
2017-12-04T09:27:43.657Z,6.38
2017-12-04T09:28:52.487Z,6.22
2017-12-04T09:30:01.314Z,6.22
2017-12-04T09:31:10.515Z,6.17
2017-12-04T09:32:19.345Z,6.3
2017-12-04T09:33:28.175Z,6.21
2017-12-04T09:34:37.004Z,6.28
2017-12-04T09:35:45.829Z,6.18
2017-12-04T09:36:54.760Z,6.25
2017-12-04T09:38:03.588Z,6.25
2017-12-04T09:39:12.416Z,6.38
2017-12-04T09:40:21.244Z,6.28
2017-12-04T09:41:30.071Z,6.3
2017-12-04T09:42:38.898Z,6.27
2017-12-04T09:43:47.731Z,6.36
2017-12-04T09:44:56.558Z,6.52
2017-12-04T09:46:05.386Z,6.44
2017-12-04T09:47:14.489Z,6.44
2017-12-04T09:48:23.471Z,6.58
2017-12-04T09:49:32.300Z,6.48
2017-12-04T09:50:41.128Z,6.76
2017-12-04T09:51:49.956Z,6.69
2017-12-04T09:52:58.785Z,6.66
2017-12-04T09:54:07.665Z,6.59
2017-12-04T09:55:16.491Z,6.49
2017-12-04T09:56:25.330Z,6.56
2017-12-04T09:57:34.149Z,6.4
2017-12-04T09:58:42.981Z,6.41
2017-12-04T09:59:52.109Z,6.38
2017-12-04T10:01:00.934Z,6.25
2017-12-04T10:02:09.763Z,6.36
2017-12-04T10:03:18.590Z,6.49
2017-12-04T10:04:27.416Z,6.36
2017-12-04T10:05:36.246Z,6.41
2017-12-04T10:06:45.074Z,6.55
2017-12-04T10:07:53.902Z,6.52
2017-12-04T10:09:02.730Z,6.51
2017-12-04T10:10:11.560Z,6.55
2017-12-04T10:11:20.539Z,6.49
2017-12-04T10:12:29.366Z,6.62
2017-12-04T10:13:38.197Z,6.37
2017-12-04T10:14:47.028Z,6.46
2017-12-04T10:15:55.858Z,6.54
2017-12-04T10:17:04.684Z,6.48
2017-12-04T10:18:13.512Z,6.62
2017-12-04T10:19:22.339Z,6.74
2017-12-04T10:20:31.487Z,6.38
2017-12-04T10:21:40.314Z,6.43
2017-12-04T10:22:49.291Z,6.38
2017-12-04T10:23:58.123Z,6.3
2017-12-04T10:25:06.950Z,6.25
2017-12-04T10:26:15.776Z,6.38
2017-12-04T10:27:24.607Z,6.31
2017-12-04T10:28:33.588Z,6.41
2017-12-04T10:29:42.413Z,6.38
2017-12-04T10:30:51.242Z,6.41
2017-12-04T10:32:00.077Z,6.25
2017-12-04T10:33:08.897Z,6.22
2017-12-04T10:34:18.026Z,6.18
2017-12-04T10:35:27.127Z,6.44
2017-12-04T10:36:36.231Z,6.28
2017-12-04T10:37:45.062Z,6.33
2017-12-04T10:38:53.887Z,6.34
2017-12-04T10:40:02.990Z,6.21
2017-12-04T10:41:11.820Z,6.22
2017-12-04T10:42:20.650Z,6.3
2017-12-04T10:43:29.479Z,6.38
2017-12-04T10:44:38.590Z,6.38
2017-12-04T10:45:47.712Z,6.27
2017-12-04T10:46:56.541Z,6.58
2017-12-04T10:48:05.367Z,6.52
2017-12-04T10:49:14.480Z,6.4
2017-12-04T10:50:23.306Z,6.36
2017-12-04T10:51:32.293Z,6.27
2017-12-04T10:52:41.116Z,6.79
2017-12-04T10:53:49.947Z,6.61
2017-12-04T10:54:58.773Z,6.54
2017-12-04T10:56:07.601Z,6.51
2017-12-04T10:57:16.529Z,6.44
2017-12-04T10:58:25.356Z,6.74
2017-12-04T10:59:34.185Z,6.66
2017-12-04T11:00:43.019Z,6.62
2017-12-04T11:01:51.947Z,6.49
2017-12-04T11:03:00.975Z,6.43
2017-12-04T11:04:09.806Z,6.41
2017-12-04T11:05:18.635Z,6.37
2017-12-04T11:06:28.033Z,6.48
2017-12-04T11:07:36.863Z,6.54
2017-12-04T11:08:45.748Z,6.91
2017-12-04T11:09:54.570Z,6.73
2017-12-04T11:11:03.675Z,6.59
2017-12-04T11:12:12.502Z,6.54
2017-12-04T11:13:21.330Z,6.51
2017-12-04T11:14:30.209Z,6.46
2017-12-04T11:15:39.038Z,6.69
2017-12-04T11:16:47.865Z,6.8
2017-12-04T11:17:56.694Z,6.67
2017-12-04T11:19:05.523Z,6.62
2017-12-04T11:20:14.452Z,6.61
2017-12-04T11:21:23.282Z,6.71
2017-12-04T11:22:32.111Z,6.79
2017-12-04T11:23:40.943Z,6.81
2017-12-04T11:24:50.055Z,6.8
2017-12-04T11:25:59.267Z,6.71
2017-12-04T11:27:08.096Z,6.81
2017-12-04T11:28:16.927Z,6.8
2017-12-04T11:29:25.806Z,6.87
2017-12-04T11:30:34.636Z,6.74
2017-12-04T11:31:43.939Z,6.87
2017-12-04T11:32:52.770Z,6.84
2017-12-04T11:34:01.600Z,6.81
2017-12-04T11:35:10.757Z,6.8
2017-12-04T11:36:19.585Z,6.85
2017-12-04T11:37:28.415Z,6.89
2017-12-04T11:38:37.243Z,7.24
2017-12-04T11:39:46.073Z,7.13
2017-12-04T11:40:54.901Z,6.99
2017-12-04T11:42:03.730Z,7.05
2017-12-04T11:43:12.661Z,7.05
2017-12-04T11:44:21.488Z,7.06
2017-12-04T11:45:30.318Z,7.05
2017-12-04T11:46:39.149Z,6.99
2017-12-04T11:47:47.978Z,7.34
2017-12-04T11:48:56.859Z,7.21
2017-12-04T11:50:05.688Z,7.12
2017-12-04T11:51:14.515Z,7.2
2017-12-04T11:52:23.346Z,7.03
2017-12-04T11:53:32.175Z,7.02
2017-12-04T11:54:41.102Z,7.02
2017-12-04T11:55:49.932Z,7.02
2017-12-04T11:56:58.763Z,7.31
2017-12-04T11:58:07.596Z,7.34
2017-12-04T11:59:16.423Z,7.34
2017-12-04T12:00:25.250Z,7.37
2017-12-04T12:01:34.081Z,7.17
2017-12-04T12:02:42.911Z,7.25
2017-12-04T12:03:51.740Z,7.3
2017-12-04T12:05:00.567Z,7.28
2017-12-04T12:06:09.597Z,7.17
2017-12-04T12:07:18.426Z,7.09
2017-12-04T12:08:27.254Z,7.31
2017-12-04T12:09:36.364Z,7.49
2017-12-04T12:10:45.190Z,7.28
2017-12-04T12:11:54.274Z,7.15
2017-12-04T12:13:03.098Z,7.3
2017-12-04T12:14:11.929Z,7.3
2017-12-04T12:15:21.032Z,7.49
2017-12-04T12:16:29.863Z,7.28
2017-12-04T12:17:39.219Z,7.5
2017-12-04T12:18:48.049Z,7.45
2017-12-04T12:19:56.879Z,7.48
2017-12-04T12:21:05.710Z,7.63
2017-12-04T12:22:14.538Z,7.63
2017-12-04T12:23:23.669Z,7.4
2017-12-04T12:24:32.498Z,7.45
2017-12-04T12:25:41.325Z,7.37
2017-12-04T12:26:50.165Z,7.6
2017-12-04T12:27:58.994Z,7.49
2017-12-04T12:29:07.873Z,7.55
2017-12-04T12:30:16.702Z,7.45
2017-12-04T12:31:25.532Z,7.53
2017-12-04T12:32:34.363Z,7.46
2017-12-04T12:33:43.191Z,7.3
2017-12-04T12:34:52.173Z,7.31
2017-12-04T12:36:01.004Z,7.13
2017-12-04T12:37:09.834Z,7.15
2017-12-04T12:38:18.664Z,7.17
2017-12-04T12:39:27.496Z,7.31
2017-12-04T12:40:36.375Z,7.45
2017-12-04T12:41:45.206Z,7.32
2017-12-04T12:42:54.035Z,7.1
2017-12-04T12:44:02.864Z,7.09
2017-12-04T12:45:11.969Z,7.25
2017-12-04T12:46:20.949Z,7.09
2017-12-04T12:47:30.054Z,7.06
2017-12-04T12:48:38.888Z,7.12
2017-12-04T12:49:47.987Z,7.37
2017-12-04T12:50:56.816Z,7.46
2017-12-04T12:52:05.745Z,7.37
2017-12-04T12:53:14.575Z,7.24
2017-12-04T12:54:23.404Z,7.24
2017-12-04T12:55:32.512Z,7.27
2017-12-04T12:56:41.341Z,7.2
2017-12-04T12:57:50.218Z,7.17
2017-12-04T12:58:59.049Z,7.17
2017-12-04T13:00:07.877Z,7.21
2017-12-04T13:01:16.704Z,7.21
2017-12-04T13:02:25.534Z,7.24
2017-12-04T13:03:34.416Z,7.31
2017-12-04T13:04:43.244Z,7.06
2017-12-04T13:05:52.071Z,7.34
2017-12-04T13:07:00.901Z,7.21
2017-12-04T13:08:09.729Z,7.16
2017-12-04T13:09:18.613Z,6.91
2017-12-04T13:10:27.438Z,7.23
2017-12-04T13:11:36.315Z,7.21
2017-12-04T13:12:45.417Z,6.99
2017-12-04T13:13:54.245Z,6.95
2017-12-04T13:15:03.227Z,7.09
2017-12-04T13:16:12.434Z,7.2
2017-12-04T13:17:21.264Z,6.88
2017-12-04T13:18:30.094Z,6.88
2017-12-04T13:19:38.972Z,6.98
2017-12-04T13:20:47.905Z,6.77
2017-12-04T13:21:56.731Z,6.99
2017-12-04T13:23:05.607Z,6.89
2017-12-04T13:24:14.437Z,6.94
2017-12-04T13:25:23.266Z,6.95
2017-12-04T13:26:32.292Z,7.23
2017-12-04T13:27:41.172Z,7.02
2017-12-04T13:28:50.228Z,6.85
2017-12-04T13:29:59.057Z,6.91
2017-12-04T13:31:07.885Z,7.25
2017-12-04T13:32:16.713Z,6.92
2017-12-04T13:33:25.878Z,6.84
2017-12-04T13:34:34.705Z,6.88
2017-12-04T13:35:43.531Z,6.94
2017-12-04T13:36:52.360Z,6.88
2017-12-04T13:38:01.290Z,6.94
2017-12-04T13:39:10.120Z,6.89
2017-12-04T13:40:18.950Z,6.89
2017-12-04T13:41:27.778Z,6.89
2017-12-04T13:42:36.607Z,6.97
2017-12-04T13:43:45.486Z,6.88
2017-12-04T13:44:54.364Z,6.98
2017-12-04T13:46:03.194Z,6.88
2017-12-04T13:47:12.022Z,6.89
2017-12-04T13:48:20.851Z,6.87
2017-12-04T13:49:29.981Z,6.85
2017-12-04T13:50:38.811Z,6.81
2017-12-04T13:51:47.639Z,6.94
2017-12-04T13:52:56.469Z,7.15
2017-12-04T13:54:05.298Z,7.25
2017-12-04T13:55:14.278Z,6.89
2017-12-04T13:56:23.107Z,7.25
2017-12-04T13:57:31.937Z,7.23
2017-12-04T13:58:40.768Z,7.5
2017-12-04T13:59:49.600Z,7.28
2017-12-04T14:00:59.230Z,7.17
2017-12-04T14:02:08.058Z,6.98
2017-12-04T14:03:16.885Z,7.37
2017-12-04T14:04:25.715Z,7.2
2017-12-04T14:05:34.547Z,7.32
2017-12-04T14:06:43.473Z,6.89
2017-12-04T14:07:52.304Z,7.02
2017-12-04T14:09:01.406Z,7.02
2017-12-04T14:10:10.236Z,6.81
2017-12-04T14:11:19.341Z,6.97
2017-12-04T14:12:28.267Z,6.95
2017-12-04T14:13:37.095Z,6.91
2017-12-04T14:14:45.924Z,6.91
2017-12-04T14:15:54.752Z,6.89
2017-12-04T14:17:03.581Z,6.94
2017-12-04T14:18:12.513Z,6.81
2017-12-04T14:19:21.337Z,6.79
2017-12-04T14:20:30.166Z,6.8
2017-12-04T14:21:38.994Z,6.88
2017-12-04T14:22:47.820Z,6.76
2017-12-04T14:23:56.749Z,6.71
2017-12-04T14:25:05.580Z,6.71
2017-12-04T14:26:14.409Z,6.88
2017-12-04T14:27:23.241Z,6.73
2017-12-04T14:28:32.066Z,6.73
2017-12-04T14:29:40.894Z,6.77
2017-12-04T14:30:49.720Z,6.64
2017-12-04T14:31:58.551Z,6.61
2017-12-04T14:33:07.380Z,6.61
2017-12-04T14:34:16.206Z,7.07
2017-12-04T14:35:25.236Z,6.74
2017-12-04T14:36:34.062Z,6.69
2017-12-04T14:37:42.889Z,6.67
2017-12-04T14:38:51.715Z,6.69
2017-12-04T14:40:00.542Z,6.85
2017-12-04T14:41:09.421Z,6.95
2017-12-04T14:42:18.250Z,6.84
2017-12-04T14:43:27.076Z,6.85
2017-12-04T14:44:35.905Z,6.69
2017-12-04T14:45:44.737Z,6.71
2017-12-04T14:46:53.675Z,6.67
2017-12-04T14:48:03.055Z,6.44
2017-12-04T14:49:11.885Z,6.56
2017-12-04T14:50:20.713Z,6.52
2017-12-04T14:51:29.539Z,6.66
2017-12-04T14:52:38.513Z,7.09
2017-12-04T14:53:47.440Z,6.71
2017-12-04T14:54:56.271Z,6.51
2017-12-04T14:56:05.108Z,6.44
2017-12-04T14:57:14.217Z,6.38
2017-12-04T14:58:23.242Z,6.44
2017-12-04T14:59:32.068Z,6.37
2017-12-04T15:00:40.899Z,6.27
2017-12-04T15:01:49.728Z,6.38
2017-12-04T15:02:58.554Z,6.28
2017-12-04T15:04:07.532Z,6.31
2017-12-04T15:05:16.387Z,6.38
2017-12-04T15:06:25.188Z,6.46
2017-12-04T15:07:34.290Z,6.33
2017-12-04T15:08:43.116Z,6.36
2017-12-04T15:09:52.245Z,6.27
2017-12-04T15:11:01.071Z,6.4
2017-12-04T15:12:09.897Z,6.4
2017-12-04T15:13:18.776Z,6.34
2017-12-04T15:14:27.608Z,6.25
2017-12-04T15:15:37.009Z,6.52
2017-12-04T15:16:45.836Z,6.51
2017-12-04T15:17:54.674Z,6.4
2017-12-04T15:19:03.511Z,6.3